Time;durP1;ratioP1;P1;durP2;ratioP2;P2;SDS_P1;SDS_P2;PMS_P1;PMS_P2;Temp;Humidity;BMP_temperature;BMP_pressure;BME280_temperature;BME280_humidity;BME280_pressure;Samples;Min_cycle;Max_cycle;Signal;HPM_P1;HPM_P2
2023/02/23 00:01:30;;;;;;;24.65;8.88;;;;;;;;;;10613791;27;20347;-79
2023/02/23 00:06:45;;;;;;;22.57;7.70;;;;;;;;;;10606140;27;20054;-76
2023/02/23 00:11:50;;;;;;;19.80;6.78;;;;;;;;;;10600245;27;20042;-75
2023/02/23 00:16:53;;;;;;;18.88;7.97;;;;;;;;;;10609064;27;20039;-75
2023/02/23 00:21:57;;;;;;;18.95;8.50;;;;;;;;;;10608666;27;20245;-76
2023/02/23 00:27:05;;;;;;;15.65;7.13;;;;;;;;;;10616439;27;20046;-76
2023/02/23 00:32:08;;;;;;;21.02;8.50;;;;;;;;;;10621367;27;20046;-77
2023/02/23 00:37:13;;;;;;;21.40;8.48;;;;;;;;;;10616818;27;20039;-78
2023/02/23 00:42:16;;;;;;;18.35;8.00;;;;;;;;;;10591464;27;20043;-76
2023/02/23 00:47:19;;;;;;;21.57;8.23;;;;;;;;;;10596982;27;20031;-77
2023/02/23 00:52:23;;;;;;;24.23;9.82;;;;;;;;;;10619049;27;20057;-77
2023/02/23 00:57:26;;;;;;;24.13;9.98;;;;;;;;;;10624469;27;20471;-77
2023/02/23 01:02:29;;;;;;;23.05;9.60;;;;;;;;;;10624846;27;20104;-77
2023/02/23 01:07:34;;;;;;;19.98;8.68;;;;;;;;;;10616469;27;20118;-77
2023/02/23 01:12:38;;;;;;;20.40;7.72;;;;;;;;;;10627357;27;20087;-76
2023/02/23 01:17:41;;;;;;;24.30;9.23;;;;;;;;;;10612311;27;20049;-76
2023/02/23 01:22:46;;;;;;;15.73;6.80;;;;;;;;;;10618224;27;20036;-76
2023/02/23 01:27:49;;;;;;;24.50;10.15;;;;;;;;;;10614252;27;20042;-75
2023/02/23 01:32:52;;;;;;;21.40;8.45;;;;;;;;;;10589212;27;20118;-76
2023/02/23 01:37:56;;;;;;;20.13;7.38;;;;;;;;;;10612007;27;20126;-75
2023/02/23 01:43:01;;;;;;;27.02;9.93;;;;;;;;;;10614560;27;20035;-76
2023/02/23 01:48:06;;;;;;;24.33;9.35;;;;;;;;;;10601008;27;20043;-75
2023/02/23 01:53:11;;;;;;;14.30;5.85;;;;;;;;;;10621050;27;20042;-75
2023/02/23 01:58:18;;;;;;;19.58;7.82;;;;;;;;;;10597638;27;20134;-75
2023/02/23 02:03:25;;;;;;;13.85;5.25;;;;;;;;;;10612038;27;20461;-77
2023/02/23 02:08:31;;;;;;;22.77;9.68;;;;;;;;;;10609400;27;20050;-76
2023/02/23 02:13:36;;;;;;;22.40;9.38;;;;;;;;;;10583796;27;20048;-76
2023/02/23 02:18:47;;;;;;;24.60;8.48;;;;;;;;;;10610628;27;20092;-76
2023/02/23 02:24:17;;;;;;;25.65;9.30;;;;;;;;;;10604248;27;20047;-76
2023/02/23 02:29:38;;;;;;;24.58;9.80;;;;;;;;;;10582276;27;20046;-77
2023/02/23 02:34:57;;;;;;;15.00;6.22;;;;;;;;;;10582410;27;20043;-76
2023/02/23 02:40:15;;;;;;;21.08;8.32;;;;;;;;;;10593793;27;20038;-76
2023/02/23 02:45:22;;;;;;;20.63;7.68;;;;;;;;;;10602297;27;20069;-76
2023/02/23 02:50:30;;;;;;;26.20;9.38;;;;;;;;;;10612602;27;20038;-76
2023/02/23 02:55:36;;;;;;;21.80;7.78;;;;;;;;;;10605972;27;20142;-76
2023/02/23 04:21:25;;;;;;;29.30;10.77;;;;;;;;;;10604810;27;20408;-77
2023/02/23 04:26:28;;;;;;;29.73;10.53;;;;;;;;;;10600668;27;20042;-77
2023/02/23 04:31:35;;;;;;;30.52;11.68;;;;;;;;;;10604698;27;20203;-77
2023/02/23 04:36:37;;;;;;;29.20;11.45;;;;;;;;;;10592448;27;20228;-77
2023/02/23 04:41:40;;;;;;;29.42;10.80;;;;;;;;;;10613912;27;20043;-77
2023/02/23 04:46:45;;;;;;;27.27;10.73;;;;;;;;;;10604786;27;20035;-77
2023/02/23 04:51:47;;;;;;;27.02;10.32;;;;;;;;;;10610440;27;20504;-77
2023/02/23 04:56:50;;;;;;;27.05;10.00;;;;;;;;;;10607136;27;20047;-77
2023/02/23 05:01:54;;;;;;;28.08;9.18;;;;;;;;;;10609831;27;20043;-77
2023/02/23 05:06:57;;;;;;;27.08;9.30;;;;;;;;;;10609491;27;20050;-76
2023/02/23 05:12:00;;;;;;;32.97;10.82;;;;;;;;;;10612464;27;20061;-77
2023/02/23 05:17:05;;;;;;;27.88;10.77;;;;;;;;;;10610967;27;20464;-78
2023/02/23 05:22:11;;;;;;;25.55;10.07;;;;;;;;;;10606449;27;20050;-77
2023/02/23 05:27:16;;;;;;;5.15;3.10;;;;;;;;;;10606923;27;20072;-79
2023/02/23 05:32:22;;;;;;;27.70;10.68;;;;;;;;;;10618529;27;20031;-76
2023/02/23 05:37:25;;;;;;;26.83;9.52;;;;;;;;;;10609392;27;20359;-75
2023/02/23 05:42:28;;;;;;;24.73;9.82;;;;;;;;;;10608554;27;20146;-77
2023/02/23 05:47:37;;;;;;;23.88;9.68;;;;;;;;;;10602400;27;20493;-77
2023/02/23 05:52:40;;;;;;;31.30;10.35;;;;;;;;;;10596342;27;20042;-78
2023/02/23 05:57:44;;;;;;;21.10;8.60;;;;;;;;;;10602699;27;20527;-77
2023/02/23 06:02:51;;;;;;;25.25;8.57;;;;;;;;;;10601915;27;20370;-78
2023/02/23 06:07:55;;;;;;;20.85;8.10;;;;;;;;;;10605119;27;20092;-77
2023/02/23 06:13:01;;;;;;;19.13;7.93;;;;;;;;;;10609979;27;20066;-77
2023/02/23 06:18:06;;;;;;;22.00;8.87;;;;;;;;;;10609642;27;20120;-76
2023/02/23 06:23:10;;;;;;;22.48;7.40;;;;;;;;;;10608626;27;20553;-77
2023/02/23 06:28:14;;;;;;;23.35;9.07;;;;;;;;;;10603334;27;20036;-76
2023/02/23 06:33:19;;;;;;;22.83;8.25;;;;;;;;;;10595210;27;20138;-76
2023/02/23 06:38:22;;;;;;;24.23;9.02;;;;;;;;;;10588868;27;20052;-76
2023/02/23 06:43:25;;;;;;;23.50;9.35;;;;;;;;;;10596461;27;20414;-76
2023/02/23 06:48:29;;;;;;;29.20;9.05;;;;;;;;;;10599161;27;20047;-76
2023/02/23 06:53:32;;;;;;;28.40;10.18;;;;;;;;;;10611143;27;20035;-76
2023/02/23 06:58:34;;;;;;;23.42;8.45;;;;;;;;;;10607102;27;20095;-76
2023/02/23 07:03:38;;;;;;;20.92;6.88;;;;;;;;;;10610939;27;20061;-76
2023/02/23 07:08:43;;;;;;;6.25;3.55;;;;;;;;;;10607345;27;20051;-76
2023/02/23 07:13:46;;;;;;;22.65;8.00;;;;;;;;;;10612204;27;20092;-77
2023/02/23 07:18:50;;;;;;;21.92;9.65;;;;;;;;;;10610502;27;20142;-76
2023/02/23 07:23:53;;;;;;;28.25;9.48;;;;;;;;;;10609423;27;20047;-76
2023/02/23 07:28:55;;;;;;;7.60;3.13;;;;;;;;;;10612786;27;20120;-75
2023/02/23 07:33:59;;;;;;;18.77;6.38;;;;;;;;;;10602595;27;20401;-75
2023/02/23 07:39:02;;;;;;;17.85;4.93;;;;;;;;;;10591416;27;20031;-77
2023/02/23 07:44:05;;;;;;;19.17;8.17;;;;;;;;;;10617346;27;20055;-74
2023/02/23 07:49:09;;;;;;;20.17;8.85;;;;;;;;;;10594190;27;20047;-75
2023/02/23 07:54:12;;;;;;;;;;;;;;;;;;10599653;27;20043;-77
2023/02/23 07:59:15;;;;;;;28.20;10.15;;;;;;;;;;10615469;27;20380;-76
2023/02/23 08:04:18;;;;;;;28.30;9.32;;;;;;;;;;10616534;27;20031;-77
2023/02/23 08:09:22;;;;;;;13.40;5.47;;;;;;;;;;10607579;27;20069;-77
2023/02/23 08:14:25;;;;;;;20.15;7.40;;;;;;;;;;10620913;27;20460;-77
2023/02/23 08:19:30;;;;;;;22.17;9.10;;;;;;;;;;10622864;27;20465;-77
2023/02/23 08:24:33;;;;;;;15.20;6.50;;;;;;;;;;10624033;27;20036;-77
2023/02/23 08:29:37;;;;;;;14.53;6.20;;;;;;;;;;10611330;27;20039;-78
2023/02/23 08:34:40;;;;;;;;;;;;;;;;;;10614189;27;20143;-76
2023/02/23 08:39:44;;;;;;;33.28;9.88;;;;;;;;;;10622577;27;19929;-77
2023/02/23 08:44:48;;;;;;;26.70;9.48;;;;;;;;;;10601868;27;20044;-77
2023/02/23 08:49:53;;;;;;;;;;;;;;;;;;10612072;27;20480;-77
2023/02/23 08:54:57;;;;;;;23.67;8.70;;;;;;;;;;10593705;27;19927;-77
2023/02/23 09:00:00;;;;;;;24.83;8.85;;;;;;;;;;10615210;27;20127;-77
2023/02/23 09:05:03;;;;;;;19.40;9.15;;;;;;;;;;10600264;27;20078;-77
2023/02/23 09:10:11;;;;;;;15.18;6.28;;;;;;;;;;10607373;27;20607;-78
2023/02/23 09:15:14;;;;;;;24.17;9.30;;;;;;;;;;10613808;27;20054;-77
2023/02/23 09:20:16;;;;;;;24.15;7.18;;;;;;;;;;10616367;27;20101;-78
2023/02/23 09:25:21;;;;;;;;;;;;;;;;;;10617655;27;20047;-76
2023/02/23 09:30:26;;;;;;;21.57;7.83;;;;;;;;;;10614245;27;20002;-77
2023/02/23 09:35:29;;;;;;;15.23;6.85;;;;;;;;;;10608139;27;20463;-77
2023/02/23 09:40:43;;;;;;;19.50;7.35;;;;;;;;;;10617287;27;20062;-76
2023/02/23 09:45:49;;;;;;;11.68;4.90;;;;;;;;;;10591991;27;20128;-77
2023/02/23 09:50:53;;;;;;;13.20;5.97;;;;;;;;;;10612752;27;20043;-77
2023/02/23 09:55:58;;;;;;;13.05;5.22;;;;;;;;;;10599179;27;20039;-77
2023/02/23 10:01:01;;;;;;;;;;;;;;;;;;10616974;27;20046;-76
2023/02/23 10:06:06;;;;;;;15.40;6.47;;;;;;;;;;10616525;27;19961;-76
2023/02/23 10:11:12;;;;;;;14.80;6.63;;;;;;;;;;10595856;27;20039;-78
2023/02/23 10:16:18;;;;;;;14.15;6.00;;;;;;;;;;10609573;27;20385;-79
2023/02/23 10:21:29;;;;;;;12.18;5.35;;;;;;;;;;10595802;27;21052;-77
2023/02/23 10:26:38;;;;;;;14.88;6.25;;;;;;;;;;10606023;27;20501;-77
2023/02/23 10:31:43;;;;;;;13.27;6.07;;;;;;;;;;10625730;27;20035;-77
2023/02/23 10:36:50;;;;;;;10.75;4.85;;;;;;;;;;10622644;27;20058;-77
2023/02/23 10:41:53;;;;;;;14.05;5.40;;;;;;;;;;10622563;27;20031;-77
2023/02/23 10:46:58;;;;;;;10.15;4.93;;;;;;;;;;10617998;27;20042;-78
2023/02/23 10:52:06;;;;;;;12.52;4.85;;;;;;;;;;10621041;27;20045;-78
2023/02/23 10:57:15;;;;;;;11.88;5.53;;;;;;;;;;10601843;27;20038;-78
2023/02/23 11:02:22;;;;;;;10.23;4.68;;;;;;;;;;10617699;27;20036;-78
2023/02/23 11:07:28;;;;;;;11.25;4.30;;;;;;;;;;10615792;27;20070;-78
2023/02/23 11:12:37;;;;;;;13.52;5.32;;;;;;;;;;10621313;27;20035;-78
2023/02/23 11:17:39;;;;;;;9.75;4.20;;;;;;;;;;10609340;27;20039;-78
2023/02/23 11:22:44;;;;;;;13.70;4.40;;;;;;;;;;10614956;27;20027;-78
2023/02/23 11:27:51;;;;;;;12.52;4.45;;;;;;;;;;10610509;27;20122;-78
2023/02/23 11:32:56;;;;;;;10.15;4.30;;;;;;;;;;10621559;27;20043;-78
2023/02/23 11:38:14;;;;;;;6.68;2.67;;;;;;;;;;10614261;27;20137;-79
2023/02/23 11:43:16;;;;;;;11.40;5.25;;;;;;;;;;10614526;27;20035;-77
2023/02/23 11:48:21;;;;;;;7.93;4.07;;;;;;;;;;10616903;27;20050;-78
2023/02/23 11:53:30;;;;;;;10.70;4.68;;;;;;;;;;10605376;27;20031;-78
2023/02/23 11:58:36;;;;;;;8.00;2.92;;;;;;;;;;10608661;27;20076;-78
2023/02/23 12:03:43;;;;;;;10.13;3.75;;;;;;;;;;10610558;27;20123;-78
2023/02/23 12:08:50;;;;;;;11.25;4.80;;;;;;;;;;10620406;27;20514;-78
2023/02/23 12:13:56;;;;;;;14.82;6.18;;;;;;;;;;10619276;27;20043;-77
2023/02/23 12:19:00;;;;;;;11.40;5.63;;;;;;;;;;10626082;27;20051;-77
2023/02/23 12:24:10;;;;;;;14.30;5.60;;;;;;;;;;10628772;27;20042;-77
2023/02/23 12:29:18;;;;;;;13.13;5.65;;;;;;;;;;10606761;27;20039;-78
2023/02/23 12:34:22;;;;;;;11.13;5.05;;;;;;;;;;10607666;27;20449;-77
2023/02/23 12:39:29;;;;;;;9.65;4.63;;;;;;;;;;10614811;27;20042;-77
2023/02/23 12:44:37;;;;;;;8.73;4.65;;;;;;;;;;10612659;27;20039;-78
2023/02/23 12:49:42;;;;;;;12.35;4.97;;;;;;;;;;10614882;27;20411;-78
2023/02/23 12:54:47;;;;;;;7.82;4.22;;;;;;;;;;10622823;27;20626;-77
2023/02/23 12:59:56;;;;;;;7.13;3.78;;;;;;;;;;10600409;27;20099;-78
2023/02/23 13:05:11;;;;;;;6.90;3.50;;;;;;;;;;10616083;27;20297;-77
2023/02/23 13:10:22;;;;;;;6.00;3.58;;;;;;;;;;10616025;27;20492;-78
2023/02/23 13:15:28;;;;;;;5.60;3.20;;;;;;;;;;10614191;27;20027;-77
2023/02/23 13:20:35;;;;;;;8.93;3.83;;;;;;;;;;10610455;27;20187;-77
2023/02/23 13:25:42;;;;;;;9.10;3.40;;;;;;;;;;10611181;27;20100;-78
2023/02/23 13:30:46;;;;;;;5.13;2.90;;;;;;;;;;10606911;27;20031;-78
2023/02/23 13:35:49;;;;;;;;;;;;;;;;;;10613765;27;20070;-78
2023/02/23 13:40:58;;;;;;;4.35;2.15;;;;;;;;;;10615237;27;20380;-78
2023/02/23 13:46:13;;;;;;;4.80;2.85;;;;;;;;;;10599673;27;20557;-78
2023/02/23 13:51:20;;;;;;;5.13;2.42;;;;;;;;;;10604173;27;20532;-77
2023/02/23 13:56:26;;;;;;;4.93;2.15;;;;;;;;;;10607656;27;20031;-78
2023/02/23 14:01:30;;;;;;;5.80;2.60;;;;;;;;;;10610625;27;20038;-77
2023/02/23 14:06:34;;;;;;;4.45;1.67;;;;;;;;;;10609894;27;20046;-76
2023/02/23 14:11:49;;;;;;;5.07;1.98;;;;;;;;;;10609972;27;20047;-78
2023/02/23 14:17:07;;;;;;;3.97;2.30;;;;;;;;;;10608739;27;20028;-75
2023/02/23 14:22:13;;;;;;;2.50;1.38;;;;;;;;;;10617714;27;20031;-77
2023/02/23 14:27:20;;;;;;;3.17;1.88;;;;;;;;;;10604056;27;20066;-76
2023/02/23 14:32:42;;;;;;;6.10;2.03;;;;;;;;;;10610039;27;20054;-76
2023/02/23 14:37:55;;;;;;;2.95;1.92;;;;;;;;;;10601349;27;20047;-79
2023/02/23 14:43:01;;;;;;;5.97;1.75;;;;;;;;;;10602089;27;20122;-77
2023/02/23 14:48:06;;;;;;;4.20;1.67;;;;;;;;;;10608514;27;20056;-77
2023/02/23 14:53:14;;;;;;;4.00;1.70;;;;;;;;;;10613430;27;20035;-76
2023/02/23 14:58:23;;;;;;;7.07;2.25;;;;;;;;;;10617687;27;20130;-77
2023/02/23 15:03:27;;;;;;;4.85;1.90;;;;;;;;;;10612391;27;20032;-76
2023/02/23 15:08:30;;;;;;;3.97;1.97;;;;;;;;;;10613342;27;20119;-77
2023/02/23 15:13:36;;;;;;;13.50;3.17;;;;;;;;;;10623707;27;20050;-77
2023/02/23 15:18:38;;;;;;;6.38;2.22;;;;;;;;;;10622441;27;20049;-76
2023/02/23 15:23:49;;;;;;;2.58;1.50;;;;;;;;;;10630897;27;20067;-81
2023/02/23 15:28:55;;;;;;;7.07;2.25;;;;;;;;;;10621551;27;20042;-77
2023/02/23 15:33:57;;;;;;;4.53;1.42;;;;;;;;;;10622897;27;20499;-77
2023/02/23 15:39:03;;;;;;;5.30;2.47;;;;;;;;;;10609783;27;20092;-76
2023/02/23 15:44:11;;;;;;;8.00;2.67;;;;;;;;;;10618342;27;20069;-76
2023/02/23 15:49:16;;;;;;;5.78;2.45;;;;;;;;;;10624034;27;20364;-77
2023/02/23 15:54:19;;;;;;;8.05;2.63;;;;;;;;;;10625498;27;20035;-77
2023/02/23 15:59:27;;;;;;;5.95;2.80;;;;;;;;;;10623308;27;20066;-78
2023/02/23 16:04:32;;;;;;;5.35;2.22;;;;;;;;;;10622760;27;20122;-77
2023/02/23 16:09:37;;;;;;;5.75;2.50;;;;;;;;;;10576590;27;20046;-77
2023/02/23 16:14:46;;;;;;;6.65;2.65;;;;;;;;;;10577734;27;20032;-77
2023/02/23 16:19:49;;;;;;;6.00;2.55;;;;;;;;;;10579817;27;20054;-77
2023/02/23 16:24:59;;;;;;;7.50;2.58;;;;;;;;;;10571335;27;20065;-77
2023/02/23 16:30:18;;;;;;;6.43;2.90;;;;;;;;;;10577674;27;20457;-78
2023/02/23 16:35:25;;;;;;;6.03;2.70;;;;;;;;;;10566939;27;20489;-77
2023/02/23 16:40:28;;;;;;;9.52;4.22;;;;;;;;;;10587185;27;20459;-77
2023/02/23 16:45:42;;;;;;;5.05;2.58;;;;;;;;;;10559163;27;20054;-79
2023/02/23 16:50:47;;;;;;;6.53;2.90;;;;;;;;;;10559440;27;20136;-77
2023/02/23 16:55:51;;;;;;;8.98;2.70;;;;;;;;;;10564582;27;20043;-77
2023/02/23 17:00:56;;;;;;;8.68;2.92;;;;;;;;;;10571009;27;20040;-77
2023/02/23 17:06:02;;;;;;;5.82;3.10;;;;;;;;;;10587811;27;20031;-77
2023/02/23 17:11:05;;;;;;;8.85;3.17;;;;;;;;;;10613068;27;20040;-78
2023/02/23 17:16:12;;;;;;;8.73;3.43;;;;;;;;;;10604972;27;20050;-78
2023/02/23 17:21:14;;;;;;;7.13;3.50;;;;;;;;;;10603979;27;20046;-76
2023/02/23 17:26:19;;;;;;;10.82;3.70;;;;;;;;;;10610496;27;20051;-78
2023/02/23 17:31:23;;;;;;;10.57;4.03;;;;;;;;;;10604496;27;20127;-77
2023/02/23 17:36:29;;;;;;;11.45;4.60;;;;;;;;;;10604884;27;20035;-77
2023/02/23 17:41:33;;;;;;;11.23;4.10;;;;;;;;;;10602652;27;20062;-77
2023/02/23 17:46:38;;;;;;;11.48;5.22;;;;;;;;;;10606359;27;20031;-76
2023/02/23 17:51:40;;;;;;;12.63;5.72;;;;;;;;;;10604553;27;20628;-79
2023/02/23 17:56:44;;;;;;;11.37;4.00;;;;;;;;;;10613561;27;20035;-76
2023/02/23 18:01:48;;;;;;;8.57;4.25;;;;;;;;;;10610009;27;20048;-76
2023/02/23 18:06:51;;;;;;;10.63;4.55;;;;;;;;;;10587764;27;20035;-76
2023/02/23 18:11:55;;;;;;;15.75;4.68;;;;;;;;;;10608251;27;20040;-77
2023/02/23 18:17:00;;;;;;;9.80;4.07;;;;;;;;;;10610857;27;20034;-75
2023/02/23 18:22:05;;;;;;;13.82;6.22;;;;;;;;;;10592605;27;20168;-75
2023/02/23 18:27:08;;;;;;;13.38;4.82;;;;;;;;;;10606930;27;20483;-78
2023/02/23 18:32:12;;;;;;;8.23;4.20;;;;;;;;;;10577503;27;20428;-77
2023/02/23 18:37:23;;;;;;;15.70;5.25;;;;;;;;;;10595739;27;20051;-76
2023/02/23 18:42:27;;;;;;;13.68;5.40;;;;;;;;;;10612759;27;20361;-76
2023/02/23 18:47:32;;;;;;;11.50;4.72;;;;;;;;;;10614766;27;20034;-76
2023/02/23 18:52:35;;;;;;;12.02;5.25;;;;;;;;;;10618158;27;20059;-77
2023/02/23 18:57:43;;;;;;;19.80;6.75;;;;;;;;;;10626754;27;20061;-77
2023/02/23 19:02:47;;;;;;;14.52;6.57;;;;;;;;;;10611157;27;20584;-77
2023/02/23 19:07:49;;;;;;;;;;;;;;;;;;10600851;27;20039;-77
2023/02/23 19:12:52;;;;;;;15.68;5.95;;;;;;;;;;10613080;27;20102;-78
2023/02/23 19:17:56;;;;;;;15.57;5.68;;;;;;;;;;10608860;27;20134;-78
2023/02/23 19:22:59;;;;;;;17.70;6.13;;;;;;;;;;10615339;27;20397;-77
2023/02/23 19:28:02;;;;;;;14.90;6.07;;;;;;;;;;10625188;27;20074;-77
2023/02/23 19:33:06;;;;;;;17.10;6.82;;;;;;;;;;10625351;27;20043;-75
2023/02/23 19:38:11;;;;;;;17.92;6.32;;;;;;;;;;10623449;27;20039;-77
2023/02/23 19:43:13;;;;;;;16.55;6.43;;;;;;;;;;10621485;27;20445;-77
2023/02/23 19:48:27;;;;;;;17.48;6.93;;;;;;;;;;10624109;27;20031;-76
2023/02/23 19:53:30;;;;;;;19.92;7.93;;;;;;;;;;10623459;27;20066;-77
2023/02/23 19:58:33;;;;;;;19.48;7.22;;;;;;;;;;10602009;27;20046;-76
2023/02/23 20:03:53;;;;;;;22.55;7.53;;;;;;;;;;10623733;27;20071;-77
2023/02/23 20:09:07;;;;;;;15.85;6.35;;;;;;;;;;10626321;27;20091;-77
2023/02/23 20:14:11;;;;;;;17.88;6.97;;;;;;;;;;10620453;27;20420;-77
2023/02/23 20:19:21;;;;;;;17.10;7.45;;;;;;;;;;10625723;27;20081;-77
2023/02/23 20:24:24;;;;;;;17.60;7.53;;;;;;;;;;10623269;27;20122;-77
2023/02/23 20:29:27;;;;;;;24.45;7.53;;;;;;;;;;10623342;27;20134;-80
2023/02/23 20:34:34;;;;;;;99.43;28.05;;;;;;;;;;10622351;27;20036;-78
2023/02/23 20:39:37;;;;;;;29.83;8.00;;;;;;;;;;10619991;27;20053;-77
2023/02/23 20:44:43;;;;;;;23.42;8.55;;;;;;;;;;10623496;27;20034;-76
2023/02/23 20:49:47;;;;;;;24.48;9.30;;;;;;;;;;10620114;27;20039;-77
2023/02/23 20:54:50;;;;;;;23.17;9.52;;;;;;;;;;10617275;27;20053;-78
2023/02/23 20:59:53;;;;;;;26.13;9.02;;;;;;;;;;10625298;27;20050;-79
2023/02/23 21:04:57;;;;;;;;;;;;;;;;;;10622485;27;20036;-77
2023/02/23 21:10:02;;;;;;;20.50;7.95;;;;;;;;;;10615828;27;19970;-79
2023/02/23 21:15:08;;;;;;;27.10;8.82;;;;;;;;;;10612235;27;20035;-77
2023/02/23 21:20:12;;;;;;;27.83;9.45;;;;;;;;;;10609849;27;20046;-76
2023/02/23 21:25:24;;;;;;;21.08;8.55;;;;;;;;;;10614471;27;20353;-76
2023/02/23 21:30:29;;;;;;;39.22;11.90;;;;;;;;;;10594051;27;20030;-76
2023/02/23 21:35:33;;;;;;;24.48;9.02;;;;;;;;;;10612401;27;20482;-77
2023/02/23 21:40:41;;;;;;;31.33;11.13;;;;;;;;;;10612960;27;20046;-77
2023/02/23 21:45:45;;;;;;;38.10;12.65;;;;;;;;;;10613327;27;20030;-77
2023/02/23 21:50:48;;;;;;;24.70;8.57;;;;;;;;;;10607804;27;20520;-77
2023/02/23 21:55:54;;;;;;;21.80;8.98;;;;;;;;;;10613058;27;20504;-77
2023/02/23 22:00:57;;;;;;;21.70;8.05;;;;;;;;;;10583452;27;20047;-76
2023/02/23 22:06:01;;;;;;;22.07;8.10;;;;;;;;;;10607241;27;20524;-78
2023/02/23 22:11:09;;;;;;;21.65;8.93;;;;;;;;;;10606708;27;20293;-79
2023/02/23 22:16:13;;;;;;;19.75;8.38;;;;;;;;;;10610520;27;20023;-76
2023/02/23 22:21:26;;;;;;;21.50;9.07;;;;;;;;;;10604312;27;20042;-77
2023/02/23 22:26:30;;;;;;;22.52;8.88;;;;;;;;;;10601665;27;20431;-77
2023/02/23 22:31:33;;;;;;;26.30;8.95;;;;;;;;;;10607130;27;20080;-77
2023/02/23 22:36:37;;;;;;;17.92;7.40;;;;;;;;;;10591893;27;20035;-78
2023/02/23 22:41:42;;;;;;;19.60;8.13;;;;;;;;;;10603253;27;20047;-77
2023/02/23 22:46:46;;;;;;;21.52;8.02;;;;;;;;;;10604424;27;20047;-76
2023/02/23 22:51:49;;;;;;;17.20;7.18;;;;;;;;;;10607368;27;20476;-77
2023/02/23 22:56:54;;;;;;;16.70;7.17;;;;;;;;;;10607979;27;20509;-77
2023/02/23 23:01:57;;;;;;;19.55;7.57;;;;;;;;;;10598670;27;20339;-78
2023/02/23 23:07:00;;;;;;;16.77;7.32;;;;;;;;;;10602105;27;20039;-78
2023/02/23 23:12:05;;;;;;;18.17;7.90;;;;;;;;;;10599098;27;20035;-77
2023/02/23 23:17:08;;;;;;;16.10;5.88;;;;;;;;;;10606784;27;20457;-77
2023/02/23 23:22:12;;;;;;;10.55;5.43;;;;;;;;;;10619540;27;20114;-78
2023/02/23 23:27:18;;;;;;;13.65;6.35;;;;;;;;;;10609481;27;20114;-79
2023/02/23 23:32:26;;;;;;;14.18;5.90;;;;;;;;;;10607947;27;20050;-77
2023/02/23 23:37:29;;;;;;;14.68;5.68;;;;;;;;;;10617029;27;20074;-77
2023/02/23 23:42:33;;;;;;;8.27;4.78;;;;;;;;;;10618187;27;20400;-75
2023/02/23 23:47:37;;;;;;;10.93;4.88;;;;;;;;;;10621214;27;20047;-77
2023/02/23 23:52:42;;;;;;;18.15;5.70;;;;;;;;;;10611871;27;20060;-76
2023/02/23 23:57:46;;;;;;;13.75;5.13;;;;;;;;;;10611600;27;20035;-78
